Time,TemperatureF,DewpointF,PressureIn,WindDirection,WindDirectionDegrees,WindSpeedMPH,WindSpeedGustMPH,Humidity,HourlyPrecipIn,Conditions,Clouds,dailyrainin,SolarRadiationWatts/m^2,SoftwareType,DateUTC
2013-07-11 00:22:00,51.0,51.0,-100.00,ENE,71,0.0,0.0,100,0.00,,,0.00,0.000000,,2013-07-11 04:22:00,
2013-07-11 00:32:00,51.0,51.0,-100.00,ENE,71,0.0,0.0,100,0.00,,,0.00,0.000000,,2013-07-11 04:32:00,
2013-07-11 00:42:00,51.0,51.0,-100.00,ENE,71,0.0,0.0,100,0.00,,,0.00,0.000000,,2013-07-11 04:42:00,
2013-07-11 00:53:00,51.0,51.0,-100.00,ENE,71,0.0,0.0,100,0.00,,,0.00,0.000000,,2013-07-11 04:53:00,
2013-07-11 01:22:00,50.0,50.0,-100.00,NW,313,0.0,0.0,100,0.00,,,0.00,0.000000,,2013-07-11 05:22:00,
2013-07-11 01:32:00,50.0,50.0,-100.00,NW,313,0.0,0.0,100,0.00,,,0.00,0.000000,,2013-07-11 05:32:00,
2013-07-11 01:43:00,50.0,50.0,-100.00,NW,313,0.0,0.0,100,0.00,,,0.00,0.000000,,2013-07-11 05:43:00,
2013-07-11 01:52:00,50.0,50.0,-100.00,NW,313,0.0,0.0,100,0.00,,,0.00,0.000000,,2013-07-11 05:52:00,
2013-07-11 02:32:00,49.0,49.0,-100.00,ENE,63,0.0,0.0,100,0.00,,,0.00,0.000000,,2013-07-11 06:32:00,
2013-07-11 02:43:00,49.0,49.0,-100.00,ENE,63,0.0,0.0,100,0.00,,,0.00,0.000000,,2013-07-11 06:43:00,
2013-07-11 02:52:00,49.0,49.0,-100.00,ENE,63,0.0,0.0,100,0.00,,,0.00,0.000000,,2013-07-11 06:52:00,
2013-07-11 03:22:00,48.0,48.0,-100.00,NNW,338,0.0,0.0,100,0.00,,,0.00,0.000000,,2013-07-11 07:22:00,
2013-07-11 03:32:00,48.0,48.0,-100.00,NNW,338,0.0,0.0,100,0.00,,,0.00,0.000000,,2013-07-11 07:32:00,
2013-07-11 03:45:00,48.0,48.0,-100.00,NNW,338,0.0,0.0,100,0.00,,,0.00,0.000000,,2013-07-11 07:45:00,
2013-07-11 03:53:00,48.0,48.0,-100.00,NNW,338,0.0,0.0,100,0.00,,,0.00,0.000000,,2013-07-11 07:53:00,
2013-07-11 04:22:00,47.0,47.0,-100.00,NE,51,0.0,0.0,100,0.00,,,0.00,0.000000,,2013-07-11 08:22:00,
2013-07-11 04:34:00,47.0,47.0,-100.00,NE,51,0.0,0.0,100,0.00,,,0.00,0.000000,,2013-07-11 08:34:00,
2013-07-11 04:43:00,47.0,47.0,-100.00,NE,51,0.0,0.0,100,0.00,,,0.00,0.000000,,2013-07-11 08:43:00,
2013-07-11 04:53:00,47.0,47.0,-100.00,NE,51,0.0,0.0,100,0.00,,,0.00,0.000000,,2013-07-11 08:53:00,
2013-07-11 05:21:00,46.0,46.0,-100.00,NE,47,0.0,0.0,100,0.00,,,0.00,0.000000,,2013-07-11 09:21:00,
2013-07-11 05:33:00,46.0,46.0,-100.00,NE,47,0.0,0.0,100,0.00,,,0.00,0.000000,,2013-07-11 09:33:00,
2013-07-11 05:43:00,46.0,46.0,-100.00,NE,47,0.0,0.0,100,0.00,,,0.00,0.000000,,2013-07-11 09:43:00,
2013-07-11 05:53:00,46.0,46.0,-100.00,NE,47,0.0,0.0,100,0.00,,,0.00,0.000000,,2013-07-11 09:53:00,
2013-07-11 06:22:00,45.0,45.0,-100.00,NE,53,0.0,0.0,100,0.00,,,0.00,0.000000,,2013-07-11 10:22:00,
2013-07-11 06:33:00,45.0,45.0,-100.00,NE,53,0.0,0.0,100,0.00,,,0.00,0.000000,,2013-07-11 10:33:00,
2013-07-11 06:43:00,45.0,45.0,-100.00,NE,53,0.0,0.0,100,0.00,,,0.00,0.000000,,2013-07-11 10:43:00,
2013-07-11 06:52:00,45.0,45.0,-100.00,NE,53,0.0,0.0,100,0.00,,,0.00,0.000000,,2013-07-11 10:52:00,
2013-07-11 07:22:00,44.0,44.0,-100.00,NE,48,0.0,0.0,100,0.00,,,-99.99,10.000000,,2013-07-11 11:22:00,
2013-07-11 07:32:00,44.0,44.0,-100.00,NE,48,0.0,0.0,100,0.00,,,-99.99,10.000000,,2013-07-11 11:32:00,
2013-07-11 07:43:00,44.0,44.0,-100.00,NE,48,0.0,0.0,100,0.00,,,-99.99,10.000000,,2013-07-11 11:43:00,
2013-07-11 07:53:00,44.0,44.0,-100.00,NE,48,0.0,0.0,100,0.00,,,-99.99,10.000000,,2013-07-11 11:53:00,
2013-07-11 08:22:00,48.0,48.0,-100.00,NNE,29,0.0,0.0,100,0.00,,,-99.99,44.000000,,2013-07-11 12:22:00,
2013-07-11 08:33:00,48.0,48.0,-100.00,NNE,29,0.0,0.0,100,0.00,,,-99.99,44.000000,,2013-07-11 12:33:00,
2013-07-11 08:43:00,48.0,48.0,-100.00,NNE,29,0.0,0.0,100,0.00,,,-99.99,44.000000,,2013-07-11 12:43:00,
2013-07-11 08:54:00,48.0,48.0,-100.00,NNE,29,0.0,0.0,100,0.00,,,-99.99,44.000000,,2013-07-11 12:54:00,
2013-07-11 09:34:00,62.0,61.0,-100.00,SSW,203,2.0,5.0,98,0.00,,,-99.99,312.000000,,2013-07-11 13:34:00,
2013-07-11 09:45:00,62.0,61.0,-100.00,SSW,203,2.0,5.0,98,0.00,,,-99.99,312.000000,,2013-07-11 13:45:00,
2013-07-11 09:54:00,62.0,61.0,-100.00,SSW,203,2.0,5.0,98,0.00,,,-99.99,312.000000,,2013-07-11 13:54:00,
2013-07-11 10:23:00,69.0,58.0,-100.00,South,182,3.0,5.0,69,0.00,,,0.00,501.000000,,2013-07-11 14:23:00,
2013-07-11 10:35:00,69.0,58.0,-100.00,South,182,3.0,5.0,69,0.00,,,0.00,501.000000,,2013-07-11 14:35:00,
2013-07-11 10:45:00,69.0,58.0,-100.00,South,182,3.0,5.0,69,0.00,,,0.00,501.000000,,2013-07-11 14:45:00,
2013-07-11 10:54:00,69.0,58.0,-100.00,South,182,3.0,5.0,69,0.00,,,0.00,501.000000,,2013-07-11 14:54:00,
2013-07-11 11:24:00,73.0,56.0,-100.00,SSW,197,4.0,7.0,56,0.00,,,0.00,689.000000,,2013-07-11 15:24:00,
2013-07-11 11:37:00,73.0,56.0,-100.00,SSW,197,4.0,7.0,56,0.00,,,0.00,689.000000,,2013-07-11 15:37:00,
2013-07-11 11:46:00,73.0,56.0,-100.00,SSW,197,4.0,7.0,56,0.00,,,0.00,689.000000,,2013-07-11 15:46:00,
2013-07-11 11:55:00,73.0,56.0,-100.00,SSW,197,4.0,7.0,56,0.00,,,0.00,689.000000,,2013-07-11 15:55:00,
2013-07-11 12:35:00,77.0,58.0,-100.00,SW,228,4.0,6.0,52,0.00,,,0.00,853.000000,,2013-07-11 16:35:00,
2013-07-11 12:46:00,77.0,58.0,-100.00,SW,228,4.0,6.0,52,0.00,,,0.00,853.000000,,2013-07-11 16:46:00,
2013-07-11 12:54:00,77.0,58.0,-100.00,SW,228,4.0,6.0,52,0.00,,,0.00,853.000000,,2013-07-11 16:54:00,
2013-07-11 13:26:00,77.0,55.0,-100.00,NW,314,3.0,8.0,47,0.00,,,0.00,917.000000,,2013-07-11 17:26:00,
2013-07-11 13:38:00,77.0,55.0,-100.00,NW,314,3.0,8.0,47,0.00,,,0.00,917.000000,,2013-07-11 17:38:00,
2013-07-11 13:45:00,77.0,55.0,-100.00,NW,314,3.0,8.0,47,0.00,,,0.00,917.000000,,2013-07-11 17:45:00,
2013-07-11 13:52:00,77.0,55.0,-100.00,NW,314,3.0,8.0,47,0.00,,,0.00,917.000000,,2013-07-11 17:52:00,
2013-07-11 14:24:00,79.0,53.0,-100.00,WNW,298,3.0,9.0,41,0.00,,,0.00,1026.000000,,2013-07-11 18:24:00,
2013-07-11 14:35:00,79.0,53.0,-100.00,WNW,298,3.0,9.0,41,0.00,,,0.00,1026.000000,,2013-07-11 18:35:00,
2013-07-11 14:45:00,79.0,53.0,-100.00,WNW,298,3.0,9.0,41,0.00,,,0.00,1026.000000,,2013-07-11 18:45:00,
2013-07-11 14:54:00,79.0,53.0,-100.00,WNW,298,3.0,9.0,41,0.00,,,0.00,1026.000000,,2013-07-11 18:54:00,
2013-07-11 15:38:00,82.0,50.0,-100.00,NNE,31,3.0,8.0,33,0.00,,,-99.99,1085.000000,,2013-07-11 19:38:00,
2013-07-11 15:44:00,82.0,50.0,-100.00,NNE,31,3.0,8.0,33,0.00,,,-99.99,1085.000000,,2013-07-11 19:44:00,
2013-07-11 15:55:00,82.0,50.0,-100.00,NNE,31,3.0,8.0,33,0.00,,,-99.99,1085.000000,,2013-07-11 19:55:00,
2013-07-11 16:26:00,83.0,52.0,-100.00,SW,221,4.0,10.0,35,0.00,,,0.00,952.000000,,2013-07-11 20:26:00,
2013-07-11 16:37:00,83.0,52.0,-100.00,SW,221,4.0,10.0,35,0.00,,,0.00,952.000000,,2013-07-11 20:37:00,
2013-07-11 16:46:00,83.0,52.0,-100.00,SW,221,4.0,10.0,35,0.00,,,0.00,952.000000,,2013-07-11 20:46:00,
2013-07-11 16:53:00,83.0,52.0,-100.00,SW,221,4.0,10.0,35,0.00,,,0.00,952.000000,,2013-07-11 20:53:00,
2013-07-11 17:24:00,83.0,52.0,-100.00,South,177,4.0,10.0,34,0.00,,,0.00,920.000000,,2013-07-11 21:24:00,
2013-07-11 17:45:00,83.0,52.0,-100.00,South,177,4.0,10.0,34,0.00,,,0.00,920.000000,,2013-07-11 21:45:00,
2013-07-11 18:34:00,83.0,52.0,-100.00,SSW,202,4.0,13.0,34,0.00,,,0.00,772.000000,,2013-07-11 22:34:00,
2013-07-11 18:46:00,83.0,52.0,-100.00,SSW,202,4.0,13.0,34,0.00,,,0.00,772.000000,,2013-07-11 22:46:00,
2013-07-11 18:54:00,83.0,52.0,-100.00,SSW,202,4.0,13.0,34,0.00,,,0.00,772.000000,,2013-07-11 22:54:00,
2013-07-11 19:25:00,82.0,52.0,-100.00,SSW,208,5.0,9.0,36,0.00,,,0.00,606.000000,,2013-07-11 23:25:00,
2013-07-11 19:35:00,82.0,52.0,-100.00,SSW,208,5.0,9.0,36,0.00,,,0.00,606.000000,,2013-07-11 23:35:00,
2013-07-11 19:46:00,82.0,52.0,-100.00,SSW,208,5.0,9.0,36,0.00,,,0.00,606.000000,,2013-07-11 23:46:00,
2013-07-11 19:54:00,82.0,52.0,-100.00,SSW,208,5.0,9.0,36,0.00,,,0.00,606.000000,,2013-07-11 23:54:00,
2013-07-11 20:25:00,81.0,54.0,-100.00,SSW,197,3.0,9.0,39,0.00,,,0.00,407.000000,,2013-07-12 00:25:00,
2013-07-11 20:44:00,81.0,54.0,-100.00,SSW,197,3.0,9.0,39,0.00,,,0.00,407.000000,,2013-07-12 00:44:00,
2013-07-11 20:55:00,81.0,54.0,-100.00,SSW,197,3.0,9.0,39,0.00,,,0.00,407.000000,,2013-07-12 00:55:00,
2013-07-11 21:37:00,74.0,56.0,-100.00,SSE,158,1.0,6.0,53,0.00,,,0.00,183.000000,,2013-07-12 01:37:00,
2013-07-11 21:46:00,74.0,56.0,-100.00,SSE,158,1.0,6.0,53,0.00,,,0.00,183.000000,,2013-07-12 01:46:00,
2013-07-11 21:55:00,74.0,56.0,-100.00,SSE,158,1.0,6.0,53,0.00,,,0.00,183.000000,,2013-07-12 01:55:00,
2013-07-11 22:25:00,62.0,57.0,-100.00,NE,45,0.0,0.0,85,0.00,,,0.00,18.000000,,2013-07-12 02:25:00,
2013-07-11 22:35:00,62.0,57.0,-100.00,NE,45,0.0,0.0,85,0.00,,,0.00,18.000000,,2013-07-12 02:35:00,
2013-07-11 22:45:00,62.0,57.0,-100.00,NE,45,0.0,0.0,85,0.00,,,0.00,18.000000,,2013-07-12 02:45:00,
2013-07-11 22:53:00,62.0,57.0,-100.00,NE,45,0.0,0.0,85,0.00,,,0.00,18.000000,,2013-07-12 02:53:00,
2013-07-11 23:25:00,57.0,56.0,-100.00,NE,47,0.0,0.0,98,0.00,,,0.00,0.000000,,2013-07-12 03:25:00,
2013-07-11 23:37:00,57.0,56.0,-100.00,NE,47,0.0,0.0,98,0.00,,,0.00,0.000000,,2013-07-12 03:37:00,
2013-07-11 23:44:00,57.0,56.0,-100.00,NE,47,0.0,0.0,98,0.00,,,0.00,0.000000,,2013-07-12 03:44:00,
2013-07-11 23:54:00,57.0,56.0,-100.00,NE,47,0.0,0.0,98,0.00,,,0.00,0.000000,,2013-07-12 03:54:00,